Time;durP1;ratioP1;P1;durP2;ratioP2;P2;SDS_P1;SDS_P2;PMS_P1;PMS_P2;Temp;Humidity;BMP_temperature;BMP_pressure;BME280_temperature;BME280_humidity;BME280_pressure;Samples;Min_cycle;Max_cycle;Signal;HPM_P1;HPM_P2
2021/01/01 00:00:15;;;;;;;24.25;15.32;;;0.00;76.70;;;-1.26;61.25;93845.59;5071495;28;20207;-80
2021/01/01 00:02:43;;;;;;;24.70;15.05;;;0.00;76.60;;;-1.28;61.20;93832.91;5054239;28;20203;-80
2021/01/01 00:05:17;;;;;;;27.00;15.70;;;0.00;76.70;;;-1.23;61.21;93846.13;5051187;28;20686;-80
2021/01/01 00:07:45;;;;;;;24.50;14.80;;;0.00;76.70;;;-1.22;61.23;93840.03;5054037;28;20196;-80
2021/01/01 00:10:14;;;;;;;23.35;14.45;;;0.00;76.70;;;-1.18;61.23;93851.63;5053473;28;20616;-81
2021/01/01 00:12:41;;;;;;;22.23;14.00;;;0.00;76.70;;;-1.18;60.91;93843.13;5050603;28;20222;-81
2021/01/01 00:15:08;;;;;;;21.40;13.88;;;0.00;76.70;;;-1.14;60.68;93849.56;5034584;28;20637;-81
2021/01/01 00:17:35;;;;;;;24.98;14.48;;;0.00;76.70;;;-1.16;60.78;93838.63;5045935;28;20774;-81
2021/01/01 00:20:07;;;;;;;22.98;13.93;;;0.10;76.70;;;-1.18;60.78;93843.91;5052785;28;20239;-81
2021/01/01 00:22:35;;;;;;;20.42;12.90;;;0.00;76.70;;;-1.19;61.14;93857.72;5050972;28;20192;-80
2021/01/01 00:25:04;;;;;;;22.02;13.38;;;0.00;76.60;;;-1.20;60.49;93848.38;5035543;28;20220;-81
2021/01/01 00:27:31;;;;;;;22.45;13.32;;;0.00;76.50;;;-1.24;60.82;93838.56;5018520;28;20196;-81
2021/01/01 00:29:58;;;;;;;21.30;13.65;;;0.00;76.60;;;-1.26;60.80;93845.59;5051169;28;20243;-81
2021/01/01 00:32:30;;;;;;;22.65;13.85;;;0.00;76.50;;;-1.33;60.88;93848.75;5031399;28;20206;-80
2021/01/01 00:34:57;;;;;;;24.73;15.13;;;0.10;76.60;;;-1.34;60.68;93854.06;5048950;28;20708;-81
2021/01/01 00:37:24;;;;;;;23.10;14.15;;;0.00;76.50;;;-1.34;60.84;93856.63;5043184;28;20273;-80
2021/01/01 00:39:50;;;;;;;24.50;14.80;;;-0.10;77.20;;;-1.37;60.94;93855.13;5050054;28;20705;-81
2021/01/01 00:42:17;;;;;;;24.02;15.57;;;-0.10;76.50;;;-1.38;60.96;93856.13;5064856;28;20195;-81
2021/01/01 00:44:44;;;;;;;22.38;14.70;;;-0.10;76.60;;;-1.39;60.52;93856.22;5054795;28;20245;-80
2021/01/01 00:47:12;;;;;;;23.98;14.68;;;-0.10;76.60;;;-1.42;61.12;93854.75;5054156;28;20223;-80
2021/01/01 00:49:39;;;;;;;22.88;14.45;;;-0.10;76.60;;;-1.45;61.03;93852.50;5068298;28;20223;-80
2021/01/01 00:52:06;;;;;;;27.35;15.07;;;-0.10;76.50;;;-1.49;61.01;93854.56;5035337;28;20258;-81
2021/01/01 00:54:33;;;;;;;26.08;16.13;;;-0.20;76.40;;;-1.53;61.00;93860.13;5067212;28;20208;-80
2021/01/01 00:57:00;;;;;;;27.17;16.40;;;-0.20;76.50;;;-1.54;61.22;93864.44;5061467;28;20224;-81
2021/01/01 00:59:28;;;;;;;25.90;16.05;;;-0.20;76.50;;;-1.55;61.12;93856.88;5058009;28;20207;-81
2021/01/01 01:01:56;;;;;;;27.27;15.75;;;-0.20;76.60;;;-1.55;61.07;93857.69;5053094;28;20207;-80
2021/01/01 01:04:22;;;;;;;25.50;15.23;;;-0.30;76.60;;;-1.56;61.28;93868.94;5053993;28;20215;-81
2021/01/01 01:06:49;;;;;;;24.88;16.55;;;-0.30;76.60;;;-1.56;61.06;93862.97;5050043;28;20291;-80
2021/01/01 01:09:16;;;;;;;25.88;15.88;;;-0.30;76.60;;;-1.60;61.38;93852.16;5050578;28;20212;-80
2021/01/01 01:11:46;;;;;;;28.10;16.50;;;-0.30;76.70;;;-1.54;61.19;93863.63;5034375;28;20648;-81
2021/01/01 01:14:13;;;;;;;30.10;15.45;;;-0.30;76.80;;;-1.50;61.20;93865.78;5050381;28;20694;-81
2021/01/01 01:16:39;;;;;;;34.97;16.58;;;-0.30;76.90;;;-1.46;61.33;93861.97;5038571;28;20667;-80
2021/01/01 01:19:06;;;;;;;47.67;17.25;;;-0.30;77.00;;;-1.42;61.54;93870.19;5070538;28;20199;-81
2021/01/01 01:21:33;;;;;;;60.83;17.15;;;-0.20;77.10;;;-1.40;61.52;93859.75;5069770;28;20210;-81
2021/01/01 01:24:00;;;;;;;68.75;17.15;;;-0.30;77.10;;;-1.38;61.35;93848.41;5053192;28;20286;-81
2021/01/01 01:26:27;;;;;;;74.93;17.42;;;-0.20;77.20;;;-1.31;61.29;93857.16;5035825;28;20208;-80
2021/01/01 01:28:54;;;;;;;61.17;16.48;;;-0.20;77.30;;;-1.27;61.52;93867.94;5055880;28;20217;-79
2021/01/01 01:31:21;;;;;;;54.33;16.83;;;-0.20;77.30;;;-1.21;61.25;93858.84;5062131;28;20192;-81
2021/01/01 01:33:47;;;;;;;59.85;18.45;;;-0.10;77.50;;;-1.21;61.31;93858.84;5039007;28;20192;-80
2021/01/01 01:36:15;;;;;;;77.00;17.98;;;-0.10;77.40;;;-1.13;61.33;93861.50;5064945;28;20219;-81
2021/01/01 01:38:42;;;;;;;81.88;17.98;;;-0.10;77.50;;;-1.06;61.38;93874.56;5072453;28;20272;-80
2021/01/01 01:41:08;;;;;;;74.22;18.42;;;0.00;77.50;;;-1.02;61.41;93861.25;5049808;28;20239;-81
2021/01/01 01:43:35;;;;;;;69.35;17.08;;;0.00;77.60;;;-0.99;61.50;93868.72;5053513;28;20276;-80
2021/01/01 01:46:02;;;;;;;103.13;18.00;;;0.10;77.60;;;-0.95;61.21;93865.81;5053506;28;20216;-81
2021/01/01 01:48:32;;;;;;;60.15;15.95;;;0.10;77.60;;;-0.93;61.57;93871.66;5038477;28;20204;-81
2021/01/01 01:51:07;;;;;;;56.05;16.73;;;0.10;77.60;;;-0.91;61.38;93867.97;5052712;28;20219;-81
2021/01/01 01:53:45;;;;;;;76.47;16.55;;;0.20;77.60;;;-0.93;61.20;93859.56;5073619;28;20203;-80
2021/01/01 01:56:12;;;;;;;71.53;16.63;;;0.20;77.70;;;-0.90;61.50;93871.38;5069775;28;20689;-81
2021/01/01 01:58:41;;;;;;;44.92;14.95;;;0.20;77.40;;;-0.89;61.40;93872.94;5053439;28;20230;-81
2021/01/01 02:01:08;;;;;;;60.67;14.98;;;0.20;77.50;;;-0.90;61.37;93868.78;5034784;28;20315;-80
2021/01/01 02:03:35;;;;;;;52.35;14.60;;;0.20;77.40;;;-0.90;61.78;93872.16;5062473;28;20213;-81
2021/01/01 02:06:02;;;;;;;59.40;14.68;;;0.20;77.40;;;-0.88;61.31;93874.56;5053285;28;20227;-80
2021/01/01 02:08:29;;;;;;;50.97;14.07;;;0.20;77.50;;;-0.88;61.26;93872.81;5038084;28;20196;-81
2021/01/01 02:10:58;;;;;;;53.42;14.82;;;0.20;77.50;;;-0.88;61.54;93872.00;5053231;28;20220;-80
2021/01/01 02:13:26;;;;;;;48.92;14.02;;;0.20;78.30;;;-0.85;61.40;93879.44;5052139;28;20286;-80
2021/01/01 02:15:53;;;;;;;49.33;12.60;;;0.30;77.60;;;-0.87;61.40;93878.78;5058536;28;20215;-81
2021/01/01 02:18:39;;;;;;;57.67;15.07;;;0.20;77.50;;;-0.87;61.38;93873.63;5049887;28;20303;-80
2021/01/01 02:21:08;;;;;;;26.88;12.82;;;0.30;77.60;;;-0.90;61.33;93871.38;5053141;28;20224;-81
2021/01/01 02:23:35;;;;;;;21.45;12.85;;;0.30;77.40;;;-0.91;61.33;93873.13;5036596;28;20207;-80
2021/01/01 02:26:02;;;;;;;20.50;12.75;;;0.20;77.20;;;-0.95;60.93;93873.53;5061498;28;20223;-81
2021/01/01 02:28:30;;;;;;;18.58;12.73;;;0.20;77.00;;;-1.00;60.99;93876.56;5041101;28;20199;-81
2021/01/01 02:30:57;;;;;;;19.88;12.38;;;0.20;76.90;;;-1.07;60.98;93873.78;5019733;28;20622;-81
2021/01/01 02:33:24;;;;;;;19.30;12.32;;;0.20;76.80;;;-1.17;60.82;93865.31;5059636;28;20196;-81
2021/01/01 02:35:52;;;;;;;19.63;12.70;;;0.10;76.60;;;-1.23;61.06;93866.72;5053910;28;20751;-80
2021/01/01 02:38:18;;;;;;;18.65;12.35;;;0.10;76.60;;;-1.29;60.50;93864.72;5034817;28;20219;-80
2021/01/01 02:40:45;;;;;;;20.25;12.80;;;0.10;76.60;;;-1.36;61.04;93861.91;5052840;28;20219;-80
2021/01/01 02:43:12;;;;;;;23.05;12.93;;;0.00;76.50;;;-1.41;61.13;93865.88;5072922;28;20227;-81
2021/01/01 02:45:39;;;;;;;19.55;12.82;;;0.00;76.50;;;-1.47;61.09;93860.34;5057804;28;20266;-81
2021/01/01 02:48:13;;;;;;;28.27;13.95;;;-0.10;76.50;;;-1.50;61.01;93857.25;5046847;28;20674;-81
2021/01/01 02:50:41;;;;;;;28.10;14.48;;;-0.10;76.70;;;-1.52;61.18;93854.03;5036202;28;20269;-81
2021/01/01 02:53:08;;;;;;;24.10;13.68;;;-0.20;76.50;;;-1.57;61.13;93848.50;5024448;28;20199;-81
2021/01/01 02:55:36;;;;;;;25.65;14.07;;;-0.20;76.50;;;-1.59;61.14;93848.63;5052636;28;20214;-81
2021/01/01 02:58:03;;;;;;;34.40;14.82;;;-0.30;76.50;;;-1.59;61.51;93853.78;5064560;28;20310;-80
2021/01/01 03:00:34;;;;;;;32.30;14.48;;;-0.30;76.60;;;-1.61;61.33;93861.63;5053403;28;20637;-81
2021/01/01 03:03:01;;;;;;;39.03;14.35;;;-0.30;76.60;;;-1.61;61.21;93860.84;5034185;28;20207;-81
2021/01/01 03:05:28;;;;;;;29.08;14.05;;;-0.30;76.60;;;-1.64;61.11;93853.41;5055721;28;20774;-81
2021/01/01 03:07:54;;;;;;;30.40;14.23;;;-0.40;76.60;;;-1.64;61.25;93861.91;5054101;28;20195;-81
2021/01/01 03:10:21;;;;;;;39.25;14.45;;;-0.40;76.60;;;-1.67;61.29;93851.94;5052650;28;20223;-81
2021/01/01 03:12:48;;;;;;;37.10;14.02;;;-0.40;76.70;;;-1.61;61.16;93856.50;5035458;28;20196;-81
2021/01/01 03:15:15;;;;;;;29.88;14.55;;;-0.40;76.70;;;-1.61;61.43;93860.84;5053202;28;20302;-80
2021/01/01 03:17:43;;;;;;;27.23;14.05;;;-0.40;76.80;;;-1.64;61.08;93856.78;5066057;28;20215;-80
2021/01/01 03:20:10;;;;;;;29.80;14.05;;;-0.40;76.80;;;-1.61;61.21;93858.28;5060201;28;20212;-81
2021/01/01 03:22:37;;;;;;;24.42;14.35;;;-0.40;76.80;;;-1.61;61.17;93866.00;5056629;28;20195;-80
2021/01/01 03:25:06;;;;;;;23.15;13.98;;;-0.40;76.80;;;-1.62;61.24;93862.59;5049935;28;20238;-81
2021/01/01 03:27:33;;;;;;;30.45;15.02;;;-0.40;76.80;;;-1.62;60.95;93854.88;5048043;28;20196;-81
2021/01/01 03:30:00;;;;;;;26.27;14.38;;;-0.40;76.80;;;-1.65;61.08;93847.47;5034759;28;20252;-81
2021/01/01 03:32:27;;;;;;;27.05;14.68;;;-0.40;76.70;;;-1.71;60.83;93844.66;5057820;28;20287;-81
2021/01/01 03:34:55;;;;;;;31.67;14.60;;;-0.40;76.70;;;-1.72;61.01;93851.56;5041822;28;20289;-81
2021/01/01 03:37:23;;;;;;;43.00;16.67;;;-0.50;76.70;;;-1.70;61.09;93848.84;5052612;28;20639;-81
2021/01/01 03:39:49;;;;;;;33.10;16.38;;;-0.50;76.70;;;-1.71;61.15;93848.03;5046087;28;20243;-81
2021/01/01 03:42:17;;;;;;;34.47;16.17;;;-0.50;76.70;;;-1.70;61.49;93843.69;5044173;28;20192;-81
2021/01/01 03:44:44;;;;;;;43.25;16.30;;;-0.50;76.70;;;-1.71;61.30;93839.50;5065505;28;20240;-79
2021/01/01 03:47:11;;;;;;;40.42;15.95;;;-0.50;76.80;;;-1.70;61.44;93846.28;5042694;28;20249;-79
2021/01/01 03:49:37;;;;;;;40.00;16.67;;;-0.50;76.80;;;-1.69;61.30;93846.13;5058591;28;20218;-79
2021/01/01 03:52:04;;;;;;;52.67;17.08;;;-0.50;76.90;;;-1.66;61.11;93845.03;5049335;28;20625;-80
2021/01/01 03:54:31;;;;;;;35.92;16.70;;;-0.50;76.90;;;-1.67;61.26;93836.50;5043114;28;20234;-79
2021/01/01 03:56:58;;;;;;;29.10;15.00;;;-0.50;77.00;;;-1.65;61.46;93838.94;5050196;28;20663;-79
2021/01/01 03:59:25;;;;;;;45.92;14.88;;;-0.50;77.00;;;-1.63;61.47;93832.69;5030783;28;20231;-81
2021/01/01 04:01:52;;;;;;;33.75;14.60;;;-0.50;77.10;;;-1.58;61.60;93836.59;5043895;28;20284;-81
2021/01/01 04:04:19;;;;;;;33.35;13.90;;;-0.50;77.80;;;-1.59;61.28;93833.22;5046860;28;20231;-80
2021/01/01 04:06:45;;;;;;;36.85;15.10;;;-0.50;77.00;;;-1.56;61.05;93837.25;5044739;28;20286;-80
2021/01/01 04:09:13;;;;;;;40.92;15.45;;;-0.40;77.10;;;-1.56;61.31;93834.69;5060007;28;20219;-80
2021/01/01 04:11:40;;;;;;;40.72;15.60;;;-0.40;77.10;;;-1.55;61.28;93836.31;5059939;28;20565;-79
2021/01/01 04:14:07;;;;;;;42.92;15.30;;;-0.40;77.20;;;-1.54;60.98;93835.34;5058068;28;20191;-80
2021/01/01 04:16:34;;;;;;;34.92;14.48;;;-0.40;77.00;;;-1.56;61.24;93829.53;5066350;28;20204;-79
2021/01/01 04:19:02;;;;;;;34.20;15.02;;;-0.40;77.00;;;-1.56;61.12;93832.09;5058925;28;20235;-80
2021/01/01 04:21:29;;;;;;;39.05;15.27;;;-0.40;77.00;;;-1.56;61.22;93835.50;5031117;28;20653;-79
2021/01/01 04:23:57;;;;;;;48.65;15.48;;;-0.40;76.90;;;-1.58;61.29;93834.03;5047141;28;20212;-80
2021/01/01 04:26:23;;;;;;;69.60;15.93;;;-0.40;76.90;;;-1.65;61.19;93838.94;5046292;28;20234;-80
2021/01/01 04:28:50;;;;;;;43.05;14.93;;;-0.40;76.90;;;-1.59;61.46;93843.50;5037021;28;20200;-80
2021/01/01 04:31:17;;;;;;;49.22;14.65;;;-0.40;77.00;;;-1.57;61.16;93843.38;5066324;28;20202;-79
2021/01/01 04:33:45;;;;;;;60.70;14.88;;;-0.40;77.00;;;-1.58;61.38;93852.81;5046644;28;20204;-79
2021/01/01 04:36:12;;;;;;;33.55;13.80;;;-0.40;77.10;;;-1.58;61.36;93845.13;5038054;28;20207;-79
2021/01/01 04:38:39;;;;;;;50.65;14.98;;;-0.40;77.00;;;-1.58;61.10;93850.25;5064737;28;20262;-79
2021/01/01 04:41:09;;;;;;;42.40;14.63;;;-0.40;77.00;;;-1.60;61.38;93841.88;5042773;28;20216;-79
2021/01/01 04:43:37;;;;;;;48.35;14.75;;;-0.40;77.90;;;-1.61;61.28;93838.50;5043999;28;20210;-80
2021/01/01 04:46:04;;;;;;;42.92;14.50;;;-0.40;77.10;;;-1.58;61.29;93836.59;5037961;28;20306;-80
2021/01/01 04:48:33;;;;;;;52.70;15.35;;;-0.40;77.10;;;-1.58;61.40;93834.03;5059150;28;20393;-80
2021/01/01 04:51:00;;;;;;;62.83;16.67;;;-0.40;77.10;;;-1.57;61.41;93840.81;5048470;28;20238;-80
2021/01/01 04:53:31;;;;;;;33.40;14.38;;;-0.40;77.10;;;-1.56;61.46;93840.66;5035387;28;20286;-81
2021/01/01 04:55:58;;;;;;;38.40;15.35;;;-0.40;77.20;;;-1.57;61.48;93844.16;5069446;28;20223;-80
2021/01/01 04:58:26;;;;;;;45.83;16.00;;;-0.40;77.20;;;-1.55;61.43;93846.59;5048098;28;20230;-80
2021/01/01 05:00:52;;;;;;;41.72;16.55;;;-0.40;77.10;;;-1.54;61.30;93848.22;5070429;28;20261;-81
2021/01/01 05:03:19;;;;;;;40.25;14.18;;;-0.40;77.00;;;-1.55;61.39;93852.56;5052550;28;20200;-81
2021/01/01 05:06:10;;;;;;;42.30;15.70;;;-0.40;77.00;;;-1.55;61.46;93855.13;5040606;28;20227;-80
2021/01/01 05:08:38;;;;;;;37.75;14.60;;;-0.40;77.10;;;-1.56;61.46;93850.94;5030187;28;20216;-80
2021/01/01 05:11:08;;;;;;;40.33;14.43;;;-0.40;77.00;;;-1.54;61.46;93856.72;4999582;28;20324;-80
2021/01/01 05:13:34;;;;;;;52.15;15.93;;;-0.40;77.10;;;-1.54;61.58;93856.72;5008539;28;20295;-80
2021/01/01 05:16:01;;;;;;;38.55;13.70;;;-0.40;77.10;;;-1.54;61.52;93864.44;4998275;28;20219;-80
2021/01/01 05:18:29;;;;;;;61.88;15.20;;;-0.40;77.10;;;-1.59;61.60;93851.22;5013937;28;20237;-80
2021/01/01 05:20:58;;;;;;;39.42;14.05;;;-0.40;77.20;;;-1.53;61.37;93862.69;5013933;28;20233;-81
2021/01/01 05:23:29;;;;;;;31.00;15.23;;;-0.40;77.10;;;-1.51;61.34;93860.78;4997041;28;20337;-80
2021/01/01 05:26:15;;;;;;;33.63;15.00;;;-0.40;77.30;;;-1.52;61.35;93856.59;5001563;28;20236;-80
2021/01/01 05:28:49;;;;;;;37.13;14.75;;;-0.40;77.40;;;-1.49;61.53;93861.44;5010001;28;20209;-80
2021/01/01 05:31:25;;;;;;;33.38;14.43;;;-0.40;77.40;;;-1.47;61.49;93867.25;5030325;28;20227;-81
2021/01/01 05:34:13;;;;;;;33.38;13.45;;;-0.40;77.20;;;-1.46;61.53;93859.38;4992571;28;20197;-80
2021/01/01 05:36:46;;;;;;;25.83;13.38;;;-0.30;77.50;;;-1.41;61.39;93865.88;4989811;28;20199;-80
2021/01/01 05:39:13;;;;;;;28.92;13.52;;;-0.30;77.40;;;-1.40;61.47;93868.28;5012719;28;20238;-80
2021/01/01 05:41:43;;;;;;;36.05;13.90;;;-0.30;77.30;;;-1.36;61.40;93873.97;5055456;28;20202;-81
2021/01/01 05:44:16;;;;;;;48.67;14.30;;;-0.30;77.40;;;-1.35;61.41;93873.81;5064989;28;20290;-80
2021/01/01 05:47:22;;;;;;;35.08;13.80;;;-0.30;77.50;;;-1.35;61.34;93878.16;5053633;28;20216;-81
2021/01/01 05:49:49;;;;;;;52.25;12.43;;;-0.20;77.50;;;-1.30;61.58;93874.19;4976728;28;20658;-79
2021/01/01 05:52:21;;;;;;;33.40;11.63;;;-0.20;77.40;;;-1.27;61.50;93870.50;4985704;28;20198;-79
2021/01/01 05:54:50;;;;;;;48.78;12.57;;;-0.20;77.50;;;-1.26;61.26;93858.47;5024304;28;20269;-80
2021/01/01 05:57:20;;;;;;;30.65;12.63;;;-0.20;77.50;;;-1.24;61.49;93864.28;5072840;28;20218;-80
2021/01/01 05:59:48;;;;;;;28.20;11.85;;;-0.20;77.40;;;-1.24;61.31;93869.44;5046260;28;20641;-80
2021/01/01 06:02:15;;;;;;;37.42;12.65;;;-0.10;77.40;;;-1.28;61.60;93874.06;5053114;28;20225;-80
2021/01/01 06:04:42;;;;;;;34.85;12.85;;;-0.10;77.30;;;-1.27;61.36;93875.66;5040429;28;20253;-80
2021/01/01 06:07:11;;;;;;;38.20;11.90;;;-0.10;77.20;;;-1.29;61.33;93862.16;5056912;28;20218;-80
2021/01/01 06:09:39;;;;;;;38.10;12.32;;;-0.10;77.20;;;-1.30;61.57;93869.03;5055405;28;20234;-80
2021/01/01 06:12:11;;;;;;;27.70;12.63;;;-0.10;77.20;;;-1.31;61.43;93867.44;5027046;28;20762;-81
2021/01/01 06:14:45;;;;;;;28.33;11.85;;;-0.10;77.20;;;-1.37;61.34;93860.28;5038413;28;20268;-80
2021/01/01 06:17:18;;;;;;;26.30;11.82;;;-0.10;77.20;;;-1.34;61.33;93870.28;5040105;28;20195;-80
2021/01/01 06:19:51;;;;;;;38.85;11.40;;;-0.20;77.10;;;-1.37;60.98;93870.56;5063429;28;20271;-80
2021/01/01 06:22:21;;;;;;;35.95;12.30;;;-0.20;77.10;;;-1.37;61.21;93874.91;5072964;28;20200;-80
2021/01/01 06:24:55;;;;;;;21.85;11.15;;;-0.20;77.00;;;-1.47;61.34;93872.41;5051323;28;20321;-80
2021/01/01 06:27:25;;;;;;;28.77;11.75;;;-0.20;77.10;;;-1.43;61.41;93878.06;5039805;28;20270;-81
2021/01/01 06:30:03;;;;;;;27.77;12.57;;;-0.20;77.00;;;-1.46;61.25;93879.97;5055085;28;20314;-80
2021/01/01 06:32:34;;;;;;;27.48;13.15;;;-0.20;77.20;;;-1.46;61.40;93886.88;5022877;28;20238;-79
2021/01/01 06:35:21;;;;;;;28.40;12.95;;;-0.20;77.10;;;-1.48;61.31;93883.63;5071574;28;20235;-80
2021/01/01 06:37:51;;;;;;;26.98;12.75;;;-0.30;77.20;;;-1.51;61.60;93881.38;5041207;28;20215;-80
2021/01/01 06:40:20;;;;;;;39.60;14.45;;;-0.30;76.90;;;-1.48;61.48;93887.03;5066625;28;20303;-80
2021/01/01 06:43:01;;;;;;;46.00;13.82;;;-0.30;77.10;;;-1.47;61.56;93890.41;5053762;28;20203;-81
2021/01/01 06:45:43;;;;;;;43.38;15.00;;;-0.30;77.20;;;-1.47;61.28;93895.53;5055608;28;20707;-80
2021/01/01 06:48:33;;;;;;;31.05;13.23;;;-0.30;77.70;;;-1.47;61.41;93888.63;5050607;28;20172;-80
2021/01/01 06:51:00;;;;;;;39.53;13.23;;;-0.30;77.50;;;-1.45;61.47;93893.66;5085536;28;20212;-80
2021/01/01 06:53:30;;;;;;;33.90;12.95;;;-0.30;77.20;;;-1.43;61.77;93898.63;5045190;28;20200;-81
2021/01/01 06:56:11;;;;;;;42.83;13.65;;;-0.30;77.40;;;-1.40;61.66;93900.91;5051127;28;20243;-81
2021/01/01 06:58:39;;;;;;;34.70;13.23;;;-0.30;77.50;;;-1.38;61.54;93901.59;5057273;28;20218;-80
2021/01/01 07:01:16;;;;;;;50.88;14.40;;;-0.30;77.40;;;-1.36;61.55;93907.41;5059865;28;20286;-80
2021/01/01 07:03:44;;;;;;;47.75;14.85;;;-0.30;77.50;;;-1.34;61.69;93900.38;5041752;28;20655;-81
2021/01/01 07:06:11;;;;;;;44.13;16.00;;;-0.30;77.30;;;-1.30;61.65;93909.41;5085189;28;20230;-80
2021/01/01 07:08:40;;;;;;;51.85;17.23;;;-0.30;77.40;;;-1.31;61.75;93903.44;5068660;28;20188;-81
2021/01/01 07:11:10;;;;;;;49.75;16.17;;;-0.20;77.50;;;-1.25;61.53;93909.78;5052871;28;20258;-80
2021/01/01 07:13:48;;;;;;;39.03;15.75;;;-0.20;77.50;;;-1.22;61.29;93917.22;5066546;28;20697;-79
2021/01/01 07:16:20;;;;;;;61.75;18.63;;;-0.20;77.50;;;-1.20;61.58;93912.72;5047360;28;20215;-80
2021/01/01 07:18:48;;;;;;;52.88;16.85;;;-0.10;77.50;;;-1.17;61.45;93911.63;5068699;28;20225;-81
2021/01/01 07:21:18;;;;;;;45.95;14.13;;;-0.10;77.60;;;-1.11;61.49;93912.81;5045661;28;20689;-80
2021/01/01 07:23:48;;;;;;;39.13;14.02;;;-0.10;77.60;;;-1.08;61.51;93918.47;5042065;28;20650;-80
2021/01/01 07:26:16;;;;;;;33.42;12.95;;;-0.10;77.60;;;-1.05;61.51;93922.50;5043296;28;20248;-81
2021/01/01 07:28:46;;;;;;;35.08;13.57;;;-0.10;77.60;;;-1.03;61.66;93926.56;5047151;28;20203;-81
2021/01/01 07:31:15;;;;;;;32.60;13.30;;;0.00;77.60;;;-0.97;61.54;93931.13;5065912;28;20223;-81
2021/01/01 07:33:42;;;;;;;39.85;14.55;;;0.00;77.70;;;-0.94;61.67;93935.19;5041817;28;20204;-81
2021/01/01 07:36:11;;;;;;;63.33;14.80;;;0.00;77.60;;;-0.91;61.59;93934.88;5052842;28;20210;-81
2021/01/01 07:38:40;;;;;;;38.15;12.68;;;0.10;77.70;;;-0.87;61.72;93940.56;5070826;28;20272;-80
2021/01/01 07:41:07;;;;;;;39.75;13.68;;;0.10;77.70;;;-0.81;61.61;93939.97;5028080;28;20214;-79
2021/01/01 07:43:35;;;;;;;52.47;14.10;;;0.10;77.70;;;-0.78;61.58;93938.88;5055238;28;20560;-80
2021/01/01 07:46:07;;;;;;;52.17;14.77;;;0.20;77.80;;;-0.72;61.54;93944.25;5050931;28;20265;-81
2021/01/01 07:48:35;;;;;;;36.95;13.82;;;0.20;77.80;;;-0.70;61.68;93942.31;5035163;28;20203;-81
2021/01/01 07:51:08;;;;;;;37.03;13.25;;;0.20;77.80;;;-0.67;61.51;93938.66;5046915;28;20730;-81
2021/01/01 07:53:37;;;;;;;37.58;14.38;;;0.30;77.80;;;-0.64;61.40;93943.50;5053137;28;20207;-80
2021/01/01 07:56:08;;;;;;;39.13;15.38;;;0.30;77.80;;;-0.64;61.62;93940.94;5051513;28;20306;-81
2021/01/01 07:58:37;;;;;;;32.35;13.85;;;0.40;77.90;;;-0.61;61.55;93939.81;5023829;28;20219;-81
2021/01/01 08:01:10;;;;;;;42.30;13.88;;;0.40;77.80;;;-0.55;61.51;93944.38;5050407;28;20215;-81
2021/01/01 08:03:38;;;;;;;40.28;15.20;;;0.40;77.90;;;-0.52;61.62;93942.31;5049615;28;20294;-80
2021/01/01 08:06:09;;;;;;;33.28;15.40;;;0.40;77.90;;;-0.50;61.76;93943.00;5045208;28;20258;-81
2021/01/01 08:08:37;;;;;;;56.60;16.42;;;0.50;78.00;;;-0.43;61.68;93942.41;5034135;28;20562;-80
2021/01/01 08:11:07;;;;;;;50.03;16.10;;;0.50;77.90;;;-0.42;61.82;93938.88;5044915;28;20592;-80
2021/01/01 08:13:35;;;;;;;46.83;14.82;;;0.50;78.80;;;-0.37;61.58;93942.59;5053758;28;20194;-80
2021/01/01 08:16:19;;;;;;;44.10;14.93;;;0.60;78.10;;;-0.27;61.58;93955.44;5050437;28;20646;-81
2021/01/01 08:18:47;;;;;;;43.85;15.50;;;0.60;78.10;;;-0.22;61.55;93960.94;5048551;28;20231;-80
2021/01/01 08:21:14;;;;;;;55.90;16.20;;;0.70;78.10;;;-0.20;61.78;93958.19;5065555;28;20220;-81
2021/01/01 08:24:03;;;;;;;48.72;16.48;;;0.70;78.10;;;-0.15;61.67;93953.41;5061814;28;20203;-80
2021/01/01 08:26:34;;;;;;;41.92;16.42;;;0.70;78.10;;;-0.12;61.77;93960.84;5051052;28;20642;-81
2021/01/01 08:29:02;;;;;;;177.30;65.15;;;0.80;78.20;;;-0.12;61.81;93944.56;5032301;28;20659;-80
2021/01/01 08:31:29;;;;;;;82.65;33.42;;;0.80;78.00;;;-0.06;61.63;93949.94;5062114;28;20250;-81
2021/01/01 08:33:56;;;;;;;59.20;23.67;;;0.90;78.10;;;-0.02;61.54;93951.25;5061201;28;20236;-82
2021/01/01 08:36:34;;;;;;;51.50;19.10;;;0.90;78.10;;;-0.01;61.54;93952.88;5023710;28;20673;-81
2021/01/01 08:39:11;;;;;;;53.22;17.13;;;0.90;78.30;;;0.03;61.62;93958.53;5038398;28;20607;-81
2021/01/01 08:41:47;;;;;;;45.40;15.73;;;1.00;78.20;;;0.09;61.69;93957.91;5039509;28;20658;-79
2021/01/01 08:44:19;;;;;;;65.97;16.60;;;1.00;78.20;;;0.15;61.65;93961.69;5055451;28;20249;-82
2021/01/01 08:46:56;;;;;;;38.72;14.13;;;1.00;78.00;;;0.16;61.83;93958.16;5070896;28;20280;-82
2021/01/01 08:49:23;;;;;;;39.45;13.68;;;1.00;78.00;;;0.21;61.71;93958.50;5053534;28;20625;-81
2021/01/01 08:51:50;;;;;;;55.83;15.77;;;1.10;78.10;;;0.26;62.06;93961.41;5043406;28;20686;-81
2021/01/01 08:54:36;;;;;;;57.67;16.63;;;1.10;78.20;;;0.30;61.87;93954.97;5041172;28;20708;-81
2021/01/01 08:57:04;;;;;;;46.15;17.33;;;1.20;78.10;;;0.34;61.70;93959.84;5038020;28;20195;-81
2021/01/01 08:59:31;;;;;;;54.85;16.08;;;1.20;78.20;;;0.39;61.94;93961.03;5053615;28;20236;-82
2021/01/01 09:01:59;;;;;;;44.80;16.40;;;1.30;78.20;;;0.44;61.66;93971.69;5037927;28;20650;-82
2021/01/01 09:04:29;;;;;;;53.00;15.43;;;1.30;78.20;;;0.45;61.79;93962.97;5025715;28;20227;-81
2021/01/01 09:07:02;;;;;;;62.58;16.65;;;1.30;78.20;;;0.56;61.73;93968.81;5033243;28;20206;-81
2021/01/01 09:09:33;;;;;;;45.60;17.40;;;1.40;78.30;;;0.61;61.76;93964.84;5021613;28;20319;-81
2021/01/01 09:12:15;;;;;;;49.55;18.25;;;1.40;78.30;;;0.64;61.69;93961.94;5060968;28;20191;-82
2021/01/01 09:14:55;;;;;;;57.75;18.02;;;1.50;78.30;;;0.64;61.48;93959.34;5058247;28;20310;-82
2021/01/01 09:17:25;;;;;;;48.97;16.33;;;1.50;78.00;;;0.63;61.47;93952.59;5068189;28;20232;-81
2021/01/01 09:20:07;;;;;;;44.92;16.33;;;1.50;77.90;;;0.58;61.64;93946.28;5054144;28;20208;-82
2021/01/01 09:22:40;;;;;;;51.60;17.38;;;1.50;78.00;;;0.60;61.60;93950.31;5056196;28;20696;-82
2021/01/01 09:25:21;;;;;;;49.00;15.85;;;1.50;77.90;;;0.63;61.58;93956.94;5076911;28;20269;-81
2021/01/01 09:27:51;;;;;;;54.33;16.80;;;1.50;78.10;;;0.68;61.62;93967.59;5051529;28;20686;-82
2021/01/01 09:30:20;;;;;;;46.88;14.70;;;1.60;78.10;;;0.77;61.96;93979.59;5044781;28;20204;-82
2021/01/01 09:32:53;;;;;;;47.22;15.57;;;1.60;78.30;;;0.86;62.00;93979.63;5042609;28;20203;-81
2021/01/01 09:35:23;;;;;;;47.58;15.38;;;1.60;78.60;;;0.98;62.14;93985.28;5045628;28;20314;-80
2021/01/01 09:38:01;;;;;;;56.55;16.35;;;1.70;78.60;;;1.06;62.01;93975.81;5058344;28;20216;-80
2021/01/01 09:40:30;;;;;;;55.55;15.63;;;1.80;78.80;;;1.08;61.77;93970.50;5058937;28;20219;-80
2021/01/01 09:43:04;;;;;;;36.35;14.88;;;1.80;78.50;;;1.17;61.77;93984.25;5055109;28;20279;-81
2021/01/01 09:45:32;;;;;;;59.25;14.85;;;1.90;78.40;;;1.22;61.64;93989.72;5068522;28;20219;-80
2021/01/01 09:48:00;;;;;;;36.38;13.98;;;2.00;78.50;;;1.27;61.70;93990.88;5046950;28;20566;-81
2021/01/01 09:50:28;;;;;;;31.25;15.63;;;2.00;78.50;;;1.33;61.83;93993.81;5037780;28;20785;-81
2021/01/01 09:52:55;;;;;;;71.85;30.17;;;2.10;78.50;;;1.37;62.02;94002.88;5047969;28;20645;-78
2021/01/01 09:55:21;;;;;;;46.60;22.95;;;2.10;78.40;;;1.40;61.83;94003.38;5057500;28;20219;-80
2021/01/01 09:57:49;;;;;;;39.50;19.40;;;2.20;78.40;;;1.46;61.90;94006.28;5050138;28;20724;-79
2021/01/01 10:00:17;;;;;;;38.85;18.98;;;2.20;78.50;;;1.50;62.06;94008.41;5061620;28;20626;-79
2021/01/01 10:02:44;;;;;;;41.20;20.58;;;2.20;78.50;;;1.50;61.56;94002.41;5040077;28;20203;-78
2021/01/01 10:05:12;;;;;;;44.85;20.40;;;2.30;78.40;;;1.58;61.82;94003.22;5059249;28;20227;-81
2021/01/01 10:07:39;;;;;;;46.03;17.33;;;2.30;78.50;;;1.61;61.90;93994.34;5061856;28;20644;-79
2021/01/01 10:10:08;;;;;;;41.53;17.75;;;2.40;78.50;;;1.71;61.72;94010.53;5061023;28;20226;-79
2021/01/01 10:12:34;;;;;;;33.17;15.93;;;2.40;78.40;;;1.75;61.81;94013.59;5055667;28;20200;-79
2021/01/01 10:15:03;;;;;;;34.33;15.70;;;2.50;78.40;;;1.76;61.55;94013.44;5051184;28;20234;-79
2021/01/01 10:17:31;;;;;;;33.88;15.77;;;2.50;78.30;;;1.79;61.52;94014.88;5039047;28;20219;-79
2021/01/01 10:19:57;;;;;;;35.58;16.08;;;2.50;78.30;;;1.81;61.66;94020.72;5059875;28;20342;-79